Time;durP1;ratioP1;P1;durP2;ratioP2;P2;SDS_P1;SDS_P2;PMS_P1;PMS_P2;Temp;Humidity;BMP_temperature;BMP_pressure;BME280_temperature;BME280_humidity;BME280_pressure;Samples;Min_cycle;Max_cycle;Signal;HPM_P1;HPM_P2
2021/05/16 00:02:04;;;;;;;2.10;1.40;;;;;;;24.56;43.24;94195.91;5048330;28;20028;-70
2021/05/16 00:04:30;;;;;;;1.75;1.13;;;;;;;24.55;43.00;94195.16;5048595;28;20036;-71
2021/05/16 00:06:55;;;;;;;1.90;1.17;;;;;;;24.54;43.13;94192.97;5048790;28;20025;-71
2021/05/16 00:09:21;;;;;;;1.67;0.90;;;;;;;24.53;43.09;94197.69;5063646;28;20428;-71
2021/05/16 00:11:46;;;;;;;1.80;1.13;;;;;;;24.50;43.53;94192.59;5048983;28;20075;-71
2021/05/16 00:14:12;;;;;;;1.65;1.00;;;;;;;24.51;43.57;94204.94;5048338;28;20025;-70
2021/05/16 00:16:37;;;;;;;1.58;1.20;;;;;;;24.51;43.09;94194.03;5063576;28;20036;-70
2021/05/16 00:19:04;;;;;;;1.77;1.10;;;;;;;24.48;43.28;94200.56;5048453;28;20057;-71
2021/05/16 00:21:29;;;;;;;2.17;1.02;;;;;;;24.48;43.14;94200.56;5048010;28;20047;-71
2021/05/16 00:23:55;;;;;;;1.75;1.10;;;;;;;24.44;43.28;94189.28;5047947;28;20025;-71
2021/05/16 00:26:20;;;;;;;1.70;1.25;;;;;;;24.50;43.61;94203.50;5048427;28;20025;-70
2021/05/16 00:28:46;;;;;;;1.73;1.15;;;;;;;24.49;43.25;94212.94;5047985;28;20021;-70
2021/05/16 00:31:11;;;;;;;1.60;1.10;;;;;;;24.51;43.30;94210.41;5047231;28;20017;-70
2021/05/16 00:33:37;;;;;;;1.48;1.00;;;;;;;24.44;43.17;94206.38;5063231;28;20041;-69
2021/05/16 00:36:02;;;;;;;1.42;1.00;;;;;;;24.47;43.75;94223.69;5046419;28;20623;-71
2021/05/16 00:38:28;;;;;;;1.60;1.08;;;;;;;24.49;43.19;94212.94;5063761;28;20040;-70
2021/05/16 00:40:53;;;;;;;1.73;1.00;;;;;;;24.47;43.51;94210.75;5046965;28;20484;-71
2021/05/16 00:43:19;;;;;;;1.65;1.05;;;;;;;24.48;43.01;94206.00;5026384;28;20576;-71
2021/05/16 00:45:47;;;;;;;1.50;1.00;;;;;;;24.48;43.61;94206.00;5026821;28;20520;-70
2021/05/16 00:48:13;;;;;;;1.48;1.10;;;;;;;24.46;43.22;94203.09;5029870;28;20033;-68
2021/05/16 00:50:44;;;;;;;3.17;1.10;;;;;;;24.46;43.73;94187.44;5031191;28;20454;-67
2021/05/16 00:53:09;;;;;;;1.63;1.20;;;;;;;24.49;43.60;94204.75;5031372;28;20041;-67
2021/05/16 00:55:35;;;;;;;2.50;1.20;;;;;;;24.46;43.47;94197.66;5031697;28;20407;-68
2021/05/16 00:58:01;;;;;;;1.77;1.00;;;;;;;24.46;43.54;94192.19;5041561;28;20488;-70
2021/05/16 01:00:32;;;;;;;1.33;1.02;;;;;;;24.45;43.46;94198.91;5047312;28;20086;-70
2021/05/16 01:02:58;;;;;;;1.50;1.20;;;;;;;24.46;43.50;94208.56;5048622;28;20048;-70
2021/05/16 01:05:23;;;;;;;1.65;1.20;;;;;;;24.45;43.27;94201.63;5048221;28;20397;-71
2021/05/16 01:07:49;;;;;;;1.50;1.10;;;;;;;24.23;43.21;94174.91;5048183;28;20021;-70
2021/05/16 01:10:15;;;;;;;3.05;1.27;;;;;;;24.47;43.55;94204.56;5039185;28;20025;-71
2021/05/16 01:12:48;;;;;;;1.33;1.23;;;;;;;24.44;43.84;94200.19;5047717;28;20031;-70
2021/05/16 01:15:19;;;;;;;1.33;1.10;;;;;;;24.43;43.58;94198.72;5047019;28;20037;-71
2021/05/16 01:17:45;;;;;;;1.33;1.02;;;;;;;24.35;43.62;94187.03;5047515;28;20116;-71
2021/05/16 01:20:12;;;;;;;1.85;1.30;;;;;;;24.43;43.22;94187.78;5046197;28;20033;-70
2021/05/16 01:22:38;;;;;;;1.52;1.10;;;;;;;24.43;43.68;94187.78;5047325;28;20032;-70
2021/05/16 01:25:04;;;;;;;1.80;1.20;;;;;;;24.37;43.52;94179.75;5047232;28;20051;-71
2021/05/16 01:27:30;;;;;;;2.25;1.27;;;;;;;24.42;43.60;94180.88;5047352;28;20497;-71
2021/05/16 01:29:55;;;;;;;1.60;1.00;;;;;;;24.41;43.61;94179.41;5063129;28;20117;-71
2021/05/16 01:32:23;;;;;;;1.75;1.10;;;;;;;24.43;43.43;94171.41;5046438;28;20029;-70
2021/05/16 01:34:48;;;;;;;2.08;1.20;;;;;;;24.36;43.49;94161.19;5046995;28;20029;-70
2021/05/16 01:37:14;;;;;;;1.55;1.20;;;;;;;24.42;43.73;94164.50;5047399;28;20036;-70
2021/05/16 01:39:40;;;;;;;1.38;0.95;;;;;;;24.40;43.78;94161.56;5062561;28;20539;-70
2021/05/16 01:42:05;;;;;;;2.50;1.10;;;;;;;24.40;43.34;94167.03;5029461;28;20412;-71
2021/05/16 01:44:31;;;;;;;1.98;1.30;;;;;;;24.40;43.79;94167.03;5047059;28;20480;-71
2021/05/16 01:47:01;;;;;;;1.27;1.00;;;;;;;23.83;43.83;94087.69;5062807;28;20029;-70
2021/05/16 01:49:27;;;;;;;1.77;1.00;;;;;;;24.39;43.78;94165.56;5062331;28;20029;-70
2021/05/16 01:51:53;;;;;;;1.65;1.05;;;;;;;24.40;43.51;94167.03;5047164;28;20037;-70
2021/05/16 01:54:18;;;;;;;1.13;0.98;;;;;;;24.07;43.37;94128.94;5046890;28;20048;-70
2021/05/16 01:56:44;;;;;;;1.98;1.23;;;;;;;24.39;43.25;94171.03;5050663;28;20037;-71
2021/05/16 01:59:10;;;;;;;1.95;1.40;;;;;;;24.16;43.34;94148.28;5066737;28;20039;-70
2021/05/16 02:01:36;;;;;;;1.70;1.20;;;;;;;24.39;43.16;94182.69;5066131;28;20056;-70
2021/05/16 02:04:01;;;;;;;1.48;1.10;;;;;;;24.37;43.48;94179.03;5050676;28;20551;-70
2021/05/16 02:06:27;;;;;;;2.22;1.30;;;;;;;24.39;43.61;94176.47;5051143;28;20037;-70
2021/05/16 02:08:52;;;;;;;2.50;1.77;;;;;;;24.34;43.85;94177.38;5066466;28;20036;-71
2021/05/16 02:11:18;;;;;;;1.83;1.15;;;;;;;24.37;43.51;94190.66;5050667;28;20029;-70
2021/05/16 02:13:43;;;;;;;1.38;1.20;;;;;;;24.36;43.52;94183.00;5066029;28;20040;-70
2021/05/16 02:16:10;;;;;;;1.67;1.20;;;;;;;24.37;43.59;94184.47;5050854;28;20024;-71
2021/05/16 02:18:35;;;;;;;2.30;1.50;;;;;;;24.37;43.58;94181.75;5050430;28;20570;-71
2021/05/16 02:21:02;;;;;;;2.30;1.30;;;;;;;24.31;43.23;94186.59;5066148;28;20017;-71
2021/05/16 02:23:28;;;;;;;2.05;1.27;;;;;;;24.36;43.52;94188.47;5050651;28;20050;-71
2021/05/16 02:25:53;;;;;;;1.60;1.20;;;;;;;24.14;43.56;94150.81;5050470;28;20032;-70
2021/05/16 02:28:19;;;;;;;2.05;1.20;;;;;;;24.18;43.58;94162.09;5051209;28;20025;-71
2021/05/16 02:30:45;;;;;;;1.27;0.85;;;;;;;24.33;43.58;94178.63;5033622;28;20029;-71
2021/05/16 02:33:10;;;;;;;2.22;1.40;;;;;;;24.34;43.12;94184.81;5050120;28;20032;-71
2021/05/16 02:35:36;;;;;;;1.92;1.20;;;;;;;24.36;43.25;94183.00;5065748;28;20415;-70
2021/05/16 02:38:01;;;;;;;2.08;1.20;;;;;;;24.36;43.62;94185.72;5050020;28;20534;-71
2021/05/16 02:40:27;;;;;;;1.70;1.25;;;;;;;24.34;43.69;94188.28;5050483;28;20473;-70
2021/05/16 02:42:52;;;;;;;1.40;1.13;;;;;;;24.32;43.68;94187.31;5049961;28;20043;-71
2021/05/16 02:45:18;;;;;;;2.17;1.25;;;;;;;24.29;43.48;94178.22;5065339;28;20427;-70
2021/05/16 02:47:43;;;;;;;1.67;1.10;;;;;;;24.29;43.39;94178.22;5050087;28;20017;-70
2021/05/16 02:50:11;;;;;;;1.83;1.23;;;;;;;24.36;43.25;94193.91;5066106;28;20071;-70
2021/05/16 02:52:37;;;;;;;1.70;1.20;;;;;;;24.34;43.42;94191.00;5049819;28;20132;-71
2021/05/16 02:55:03;;;;;;;2.15;1.20;;;;;;;24.35;43.65;94208.84;5049023;28;20033;-71
2021/05/16 02:57:28;;;;;;;1.77;1.05;;;;;;;24.35;43.54;94203.41;5049597;28;20523;-70
2021/05/16 02:59:55;;;;;;;2.20;1.25;;;;;;;24.32;43.25;94204.44;5031262;28;20242;-70
2021/05/16 03:02:20;;;;;;;2.10;1.20;;;;;;;24.34;43.66;94201.91;5049399;28;20017;-71
2021/05/16 03:04:46;;;;;;;1.70;1.20;;;;;;;24.34;43.51;94210.09;5031567;28;20029;-71
2021/05/16 03:07:11;;;;;;;1.60;1.15;;;;;;;24.33;43.98;94207.91;5030648;28;20189;-70
2021/05/16 03:09:37;;;;;;;1.63;1.25;;;;;;;24.31;43.77;94213.88;5049662;28;20116;-70
2021/05/16 03:12:03;;;;;;;2.13;1.23;;;;;;;24.15;43.09;94195.19;5064798;28;20029;-71
2021/05/16 03:14:28;;;;;;;1.83;1.30;;;;;;;24.29;43.71;94212.94;5048728;28;20049;-70
2021/05/16 03:16:54;;;;;;;1.90;1.10;;;;;;;24.33;43.84;94210.63;5049655;28;20762;-70
2021/05/16 03:19:20;;;;;;;1.67;1.23;;;;;;;24.29;43.49;94216.41;5049574;28;20032;-71
2021/05/16 03:21:45;;;;;;;1.98;1.00;;;;;;;24.31;43.75;94213.88;5049566;28;20017;-70
2021/05/16 03:24:11;;;;;;;1.52;1.05;;;;;;;24.31;43.45;94216.59;5049474;28;20528;-71
2021/05/16 03:26:36;;;;;;;2.13;1.30;;;;;;;24.11;43.82;94172.97;5048665;28;20025;-70
2021/05/16 03:29:04;;;;;;;2.08;1.58;;;;;;;24.31;44.23;94218.63;5064289;28;20086;-70
2021/05/16 03:31:29;;;;;;;1.88;1.15;;;;;;;24.33;43.88;94216.09;5048709;28;20028;-71
2021/05/16 03:33:55;;;;;;;2.80;1.08;;;;;;;24.34;43.59;94212.84;5045089;28;20021;-72
2021/05/16 03:36:20;;;;;;;1.63;1.20;;;;;;;24.05;43.88;94169.63;5030739;28;20028;-70
2021/05/16 03:38:46;;;;;;;1.60;1.10;;;;;;;24.21;44.57;94193.78;5063468;28;20035;-71
2021/05/16 03:41:12;;;;;;;1.75;1.13;;;;;;;24.36;44.49;94208.31;5046696;28;20028;-70
2021/05/16 03:43:37;;;;;;;1.90;1.20;;;;;;;24.39;44.66;94209.22;5046492;28;20033;-70
2021/05/16 03:46:03;;;;;;;1.88;1.13;;;;;;;24.11;44.31;94162.81;5030404;28;20032;-71
2021/05/16 03:48:28;;;;;;;1.48;1.15;;;;;;;24.45;44.34;94201.63;5046324;28;20039;-70
2021/05/16 03:50:53;;;;;;;1.42;1.20;;;;;;;24.19;44.59;94152.66;5048229;28;20044;-70
2021/05/16 03:53:19;;;;;;;1.77;1.17;;;;;;;24.53;43.97;94196.97;5046034;28;20047;-70
2021/05/16 03:55:44;;;;;;;1.63;1.10;;;;;;;24.67;44.60;94211.97;5045602;28;20032;-70
2021/05/16 03:58:10;;;;;;;1.52;1.10;;;;;;;24.45;43.58;94157.97;5039375;28;20483;-70
2021/05/16 04:00:35;;;;;;;2.03;1.40;;;;;;;24.82;43.51;94207.34;5043605;28;20021;-70
2021/05/16 04:03:00;;;;;;;1.77;0.93;;;;;;;24.63;43.26;94173.34;5046824;28;20024;-70
2021/05/16 04:05:26;;;;;;;1.73;1.30;;;;;;;25.00;43.51;94204.34;5061586;28;20028;-70
2021/05/16 04:07:51;;;;;;;1.52;1.20;;;;;;;24.57;43.11;94131.81;5046102;28;20033;-70
2021/05/16 04:10:17;;;;;;;1.77;1.23;;;;;;;25.20;43.04;94203.56;5043716;28;20434;-70
2021/05/16 04:12:42;;;;;;;1.50;1.10;;;;;;;25.02;42.37;94171.78;5037261;28;20025;-70
2021/05/16 04:15:08;;;;;;;1.52;1.00;;;;;;;25.42;42.97;94205.63;5057188;28;20021;-72
2021/05/16 04:17:34;;;;;;;1.55;1.10;;;;;;;25.47;42.29;94207.47;5037468;28;20284;-70
2021/05/16 04:19:59;;;;;;;1.40;1.00;;;;;;;25.59;42.50;94212.06;5029507;28;20436;-70
2021/05/16 04:22:25;;;;;;;1.95;0.93;;;;;;;25.65;42.18;94203.72;5046612;28;20499;-70
2021/05/16 04:24:52;;;;;;;1.60;1.10;;;;;;;25.80;41.89;94221.63;5046004;28;20404;-71
2021/05/16 04:27:17;;;;;;;1.75;1.23;;;;;;;25.87;41.39;94225.66;5046085;28;20059;-70
2021/05/16 04:29:44;;;;;;;1.48;0.90;;;;;;;25.66;41.32;94188.78;5046023;28;20419;-70
2021/05/16 04:32:10;;;;;;;1.50;1.10;;;;;;;26.03;41.04;94233.34;5045125;28;20398;-70
2021/05/16 04:34:35;;;;;;;1.73;1.10;;;;;;;26.04;41.14;94223.13;5041243;28;20096;-70
2021/05/16 04:37:01;;;;;;;1.55;1.00;;;;;;;26.00;40.68;94223.47;5045950;28;20474;-70
2021/05/16 04:39:27;;;;;;;1.65;1.20;;;;;;;26.19;41.06;94231.34;5047229;28;20529;-69
2021/05/16 04:41:52;;;;;;;2.28;1.17;;;;;;;26.26;40.36;94228.59;5041849;28;20091;-70
2021/05/16 04:44:18;;;;;;;1.45;1.10;;;;;;;26.30;40.70;94229.72;5045886;28;20040;-69
2021/05/16 04:46:43;;;;;;;1.65;1.08;;;;;;;25.95;40.20;94188.81;5047090;28;20036;-70
2021/05/16 04:49:08;;;;;;;1.58;1.02;;;;;;;26.39;40.26;94231.19;5045668;28;20078;-70
2021/05/16 04:51:35;;;;;;;1.60;1.00;;;;;;;26.44;40.07;94222.06;5043184;28;20037;-70
2021/05/16 04:54:00;;;;;;;1.83;1.00;;;;;;;26.47;39.94;94234.66;5046209;28;20084;-70
2021/05/16 04:56:26;;;;;;;1.40;1.17;;;;;;;26.53;40.12;94235.22;5046398;28;20020;-70
2021/05/16 04:58:52;;;;;;;1.42;1.08;;;;;;;26.59;40.15;94233.00;5046122;28;20063;-70
2021/05/16 05:01:17;;;;;;;1.33;1.00;;;;;;;26.58;39.92;94231.56;5046923;28;20372;-71
2021/05/16 05:03:43;;;;;;;2.17;1.23;;;;;;;26.67;39.77;94233.75;5045815;28;20118;-70
2021/05/16 05:06:08;;;;;;;1.58;1.10;;;;;;;26.76;39.58;94233.19;5045340;28;20040;-70
2021/05/16 05:08:36;;;;;;;1.15;0.90;;;;;;;26.83;39.15;94239.38;5046573;28;20027;-70
2021/05/16 05:11:02;;;;;;;1.10;0.90;;;;;;;26.77;39.60;94238.13;5028243;28;20162;-70
2021/05/16 05:13:28;;;;;;;1.85;1.10;;;;;;;26.75;39.13;94234.47;5045432;28;20037;-70
2021/05/16 05:15:54;;;;;;;1.65;1.00;;;;;;;26.81;39.55;94238.47;5028919;28;20029;-71
2021/05/16 05:18:19;;;;;;;1.38;0.90;;;;;;;26.91;39.33;94242.88;5046062;28;20036;-72
2021/05/16 05:20:45;;;;;;;2.15;0.82;;;;;;;26.87;39.48;94231.50;5044939;28;20037;-71
2021/05/16 05:23:11;;;;;;;1.80;1.23;;;;;;;26.99;39.06;94253.81;5061336;28;20029;-71
2021/05/16 05:25:36;;;;;;;2.00;0.88;;;;;;;26.95;39.19;94259.69;5044037;28;20424;-71
2021/05/16 05:28:02;;;;;;;1.50;0.98;;;;;;;27.06;39.08;94261.31;5035376;28;20079;-70
2021/05/16 05:30:28;;;;;;;1.60;1.23;;;;;;;26.99;39.20;94260.03;5044450;28;20028;-71
2021/05/16 05:32:53;;;;;;;3.65;1.00;;;;;;;26.98;39.08;94236.66;5063770;28;20025;-72
2021/05/16 05:35:19;;;;;;;1.50;1.15;;;;;;;27.15;39.33;94261.47;5050384;28;20033;-69
2021/05/16 05:37:44;;;;;;;1.77;1.10;;;;;;;27.19;38.69;94261.81;5049606;28;20027;-71
2021/05/16 05:40:10;;;;;;;2.97;1.30;;;;;;;27.22;38.70;94260.72;5067360;28;20510;-71
2021/05/16 05:42:36;;;;;;;1.80;0.98;;;;;;;27.25;38.97;94265.09;5050201;28;20103;-71
2021/05/16 05:45:03;;;;;;;2.45;1.17;;;;;;;27.35;38.56;94257.75;5049846;28;20032;-71
2021/05/16 05:47:28;;;;;;;2.97;1.42;;;;;;;27.35;38.43;94274.19;5050215;28;20415;-73
2021/05/16 05:49:54;;;;;;;2.88;1.33;;;;;;;27.38;37.99;94267.59;5050193;28;20041;-72
2021/05/16 05:52:27;;;;;;;2.25;1.40;;;;;;;27.40;38.10;94270.53;5049929;28;20491;-72
2021/05/16 05:56:49;;;;;;;2.17;1.48;;;;;;;27.50;37.71;94263.19;5074373;27;881291;-73
2021/05/16 05:59:16;;;;;;;2.55;1.50;;;;;;;27.17;38.14;94220.50;5091533;28;20031;-74
2021/05/16 06:01:41;;;;;;;3.65;2.00;;;;;;;27.51;37.95;94275.66;5077373;28;20387;-72
2021/05/16 06:04:07;;;;;;;2.95;1.70;;;;;;;27.48;38.01;94254.78;5089796;28;20097;-71
2021/05/16 06:06:32;;;;;;;2.72;1.75;;;;;;;27.10;37.70;94232.25;5092861;28;20084;-69
2021/05/16 06:08:58;;;;;;;2.70;1.50;;;;;;;27.45;38.58;94277.84;5083633;28;20061;-70
2021/05/16 06:11:23;;;;;;;2.90;1.40;;;;;;;27.45;38.38;94272.34;5095117;28;20040;-70
2021/05/16 06:13:49;;;;;;;2.70;1.60;;;;;;;27.55;37.96;94256.78;5083856;28;20038;-71
2021/05/16 06:16:14;;;;;;;3.08;1.70;;;;;;;27.26;37.67;94206.97;5090106;28;20039;-71
2021/05/16 06:18:40;;;;;;;4.45;2.15;;;;;;;27.44;37.81;94243.44;5084957;28;20101;-71
2021/05/16 06:21:05;;;;;;;2.75;1.55;;;;;;;27.64;38.02;94278.13;5102408;28;20536;-71
2021/05/16 06:23:43;;;;;;;3.63;1.85;;;;;;;27.68;37.65;94265.50;5093277;28;20032;-71
2021/05/16 06:26:08;;;;;;;4.38;1.60;;;;;;;27.66;37.85;94265.34;5085570;28;20099;-71
2021/05/16 06:28:34;;;;;;;4.10;1.73;;;;;;;27.70;37.40;94275.91;5087403;28;20028;-71
2021/05/16 06:30:59;;;;;;;2.83;1.70;;;;;;;27.36;37.85;94226.31;5091062;28;20024;-72
2021/05/16 06:33:25;;;;;;;4.03;1.80;;;;;;;27.68;37.53;94278.50;5089901;28;20028;-72
2021/05/16 06:35:50;;;;;;;3.17;1.60;;;;;;;27.79;37.65;94281.56;5091318;28;20028;-71
2021/05/16 06:38:16;;;;;;;3.25;1.80;;;;;;;27.77;37.53;94276.63;5094571;28;20024;-71
2021/05/16 06:40:41;;;;;;;3.25;1.50;;;;;;;27.59;37.42;94226.97;5085400;28;20044;-71
2021/05/16 06:43:07;;;;;;;3.78;2.10;;;;;;;27.84;37.24;94275.13;5076354;28;20036;-73
2021/05/16 06:45:33;;;;;;;3.35;1.83;;;;;;;27.85;37.50;94266.34;5080264;28;20024;-71
2021/05/16 06:47:58;;;;;;;3.13;1.70;;;;;;;27.74;37.35;94244.81;5075884;28;20507;-70
2021/05/16 06:50:24;;;;;;;3.10;1.42;;;;;;;27.82;37.38;94261.97;5082510;28;20134;-71
2021/05/16 06:52:49;;;;;;;2.90;1.50;;;;;;;27.88;37.34;94248.75;5079474;28;20039;-72
2021/05/16 06:55:15;;;;;;;2.53;1.30;;;;;;;27.70;37.11;94232.03;5096484;28;20134;-71
2021/05/16 06:57:42;;;;;;;2.58;1.55;;;;;;;28.10;36.90;94264.41;5078770;28;20083;-71
2021/05/16 07:00:08;;;;;;;3.17;1.58;;;;;;;28.01;37.44;94261.50;5109002;28;20023;-72
2021/05/16 07:02:34;;;;;;;3.28;1.60;;;;;;;28.05;37.07;94267.34;5122140;28;20110;-72
2021/05/16 07:04:59;;;;;;;2.72;1.77;;;;;;;27.89;37.04;94238.50;5112177;28;20072;-73
2021/05/16 07:07:25;;;;;;;3.10;1.77;;;;;;;28.02;37.37;94263.69;5076639;28;20019;-72
2021/05/16 07:09:50;;;;;;;3.25;1.70;;;;;;;28.08;36.64;94272.44;5089246;28;20478;-72
2021/05/16 07:12:16;;;;;;;2.80;1.70;;;;;;;27.90;36.75;94245.47;5054820;28;20020;-73
2021/05/16 07:14:41;;;;;;;3.08;1.33;;;;;;;28.17;36.43;94263.63;5061209;28;20023;-71
2021/05/16 07:17:06;;;;;;;3.92;1.63;;;;;;;28.04;36.94;94266.63;5060791;28;20121;-71
2021/05/16 07:19:32;;;;;;;3.67;1.60;;;;;;;28.13;36.95;94263.31;5086347;28;20043;-71
2021/05/16 07:21:58;;;;;;;2.40;1.50;;;;;;;28.11;36.42;94260.38;5073091;28;20490;-70
2021/05/16 07:24:23;;;;;;;2.10;1.48;;;;;;;28.01;37.21;94256.75;5085352;28;20016;-71
2021/05/16 07:26:49;;;;;;;2.53;1.40;;;;;;;28.07;36.68;94265.50;5103027;28;20010;-74
2021/05/16 07:29:14;;;;;;;3.83;1.75;;;;;;;28.12;37.04;94256.34;5074238;28;20016;-71
2021/05/16 07:31:39;;;;;;;2.55;1.38;;;;;;;28.10;37.91;94247.94;5098072;28;20555;-71
2021/05/16 07:34:05;;;;;;;2.97;1.30;;;;;;;28.17;36.84;94257.41;5095669;28;20490;-71
2021/05/16 07:36:30;;;;;;;2.95;1.52;;;;;;;28.14;37.14;94259.25;5071119;28;20123;-70
2021/05/16 07:38:56;;;;;;;3.47;1.33;;;;;;;28.31;36.38;94262.06;5086336;28;20036;-70
2021/05/16 07:41:21;;;;;;;3.67;2.00;;;;;;;28.22;35.09;94259.94;5060794;28;20020;-72
2021/05/16 07:43:47;;;;;;;3.15;1.60;;;;;;;27.58;36.37;94258.41;5085945;28;20308;-70
2021/05/16 07:46:12;;;;;;;4.80;1.50;;;;;;;27.55;37.68;94248.53;5061795;28;20025;-69
2021/05/16 07:48:38;;;;;;;2.75;1.45;;;;;;;27.66;37.17;94259.13;5058505;28;20040;-69
2021/05/16 07:51:04;;;;;;;4.00;1.80;;;;;;;27.62;36.97;94236.81;5083849;28;20040;-70
2021/05/16 07:53:31;;;;;;;4.68;1.70;;;;;;;27.75;36.98;94251.75;5086819;28;20515;-69
2021/05/16 07:55:56;;;;;;;3.42;1.38;;;;;;;27.76;36.89;94253.22;5084885;28;20047;-69
2021/05/16 07:58:22;;;;;;;3.45;1.38;;;;;;;27.83;37.19;94257.94;5081219;28;20027;-69
2021/05/16 08:00:47;;;;;;;3.05;1.42;;;;;;;27.88;36.90;94256.28;5087997;28;20035;-69
2021/05/16 08:03:13;;;;;;;3.22;1.50;;;;;;;27.93;36.86;94267.03;5052810;28;20024;-70
2021/05/16 08:05:38;;;;;;;3.22;1.42;;;;;;;27.96;36.92;94254.94;5076500;28;20023;-70
2021/05/16 08:08:04;;;;;;;3.30;1.40;;;;;;;27.98;36.82;94257.88;5104741;28;20039;-70
2021/05/16 08:10:29;;;;;;;2.90;1.42;;;;;;;27.99;36.36;94256.56;5097930;28;20020;-71
2021/05/16 08:12:55;;;;;;;3.25;1.65;;;;;;;28.02;36.49;94257.47;5086072;28;20023;-70
2021/05/16 08:15:21;;;;;;;3.90;1.70;;;;;;;28.08;36.71;94260.72;5079957;28;20487;-70
2021/05/16 08:17:46;;;;;;;2.65;1.50;;;;;;;28.11;36.67;94265.84;5087892;28;20081;-70
2021/05/16 08:20:12;;;;;;;2.65;1.45;;;;;;;28.09;37.07;94257.47;5087407;28;20047;-70
2021/05/16 08:22:38;;;;;;;3.15;1.63;;;;;;;28.09;36.79;94262.94;5088723;28;20563;-70
2021/05/16 08:25:05;;;;;;;3.38;1.55;;;;;;;28.13;36.78;94257.81;5087408;28;20487;-71
2021/05/16 08:27:30;;;;;;;2.35;1.40;;;;;;;28.15;36.91;94255.22;5088178;28;20016;-70
2021/05/16 08:29:56;;;;;;;3.03;1.35;;;;;;;28.23;36.93;94266.88;5096386;28;20510;-70
2021/05/16 08:32:21;;;;;;;2.35;1.27;;;;;;;28.25;36.83;94258.81;5093725;28;20039;-71
2021/05/16 08:34:46;;;;;;;3.05;1.27;;;;;;;28.21;36.52;94247.50;5082491;28;20035;-71
2021/05/16 08:37:13;;;;;;;2.55;1.38;;;;;;;28.24;36.61;94243.63;5085557;28;20035;-71
2021/05/16 08:39:39;;;;;;;3.20;1.40;;;;;;;28.33;36.91;94249.22;5101027;28;20419;-71
2021/05/16 08:42:04;;;;;;;3.13;1.50;;;;;;;28.31;36.67;94248.31;5101418;28;20027;-70
2021/05/16 08:44:33;;;;;;;2.15;1.30;;;;;;;28.33;36.83;94249.22;5098355;28;20120;-70
2021/05/16 08:46:59;;;;;;;4.35;1.55;;;;;;;28.35;36.52;94254.16;5103005;28;20043;-70
2021/05/16 08:49:25;;;;;;;2.80;1.42;;;;;;;28.33;36.83;94248.50;5097593;28;20526;-70
2021/05/16 08:51:50;;;;;;;2.78;1.48;;;;;;;28.36;37.02;94247.41;5103882;28;20031;-70
2021/05/16 08:54:20;;;;;;;2.90;1.50;;;;;;;28.23;36.91;94233.22;5093901;28;20066;-70
2021/05/16 08:56:53;;;;;;;2.88;1.63;;;;;;;28.42;36.18;94256.13;5099193;28;20043;-71
2021/05/16 08:59:23;;;;;;;2.90;1.35;;;;;;;28.40;36.77;94264.19;5093352;28;20128;-71
2021/05/16 09:01:50;;;;;;;3.15;1.65;;;;;;;28.51;37.20;94252.78;5064633;28;20043;-72
2021/05/16 09:04:30;;;;;;;3.58;1.50;;;;;;;28.54;36.24;94251.66;5087124;28;20097;-73
2021/05/16 09:06:56;;;;;;;;;;;;;;;28.49;36.22;94260.84;5093374;28;20020;-73
2021/05/16 09:09:28;;;;;;;1.98;1.25;;;;;;;28.45;36.77;94233.03;5096579;28;19916;-72
2021/05/16 09:12:04;;;;;;;2.17;1.27;;;;;;;28.44;36.06;94237.06;5087390;28;20115;-73
2021/05/16 09:14:53;;;;;;;2.10;1.10;;;;;;;28.44;36.86;94248.78;5065762;28;20063;-75
2021/05/16 09:17:24;;;;;;;2.53;1.50;;;;;;;28.46;36.84;94248.22;5089370;28;20035;-74
2021/05/16 09:19:51;;;;;;;2.80;1.25;;;;;;;28.51;36.90;94241.78;5107026;28;20050;-70
2021/05/16 09:22:37;;;;;;;3.00;1.23;;;;;;;28.51;36.74;94236.28;5076789;28;20024;-70
2021/05/16 09:25:09;;;;;;;3.63;1.40;;;;;;;28.51;36.25;94241.78;5099816;28;20024;-71
2021/05/16 09:27:36;;;;;;;2.60;1.30;;;;;;;28.52;36.47;94232.22;5102330;28;20028;-74
2021/05/16 09:30:23;;;;;;;3.22;1.27;;;;;;;28.34;36.34;94271.94;5088191;28;20395;-75
2021/05/16 09:33:00;;;;;;;2.30;1.45;;;;;;;28.60;36.89;94227.44;5071465;28;20110;-74
2021/05/16 09:35:32;;;;;;;3.03;1.40;;;;;;;28.65;36.23;94223.72;5090729;28;20031;-76
2021/05/16 09:38:03;;;;;;;2.25;1.10;;;;;;;28.34;36.58;94195.78;5092172;28;20032;-75
2021/05/16 09:40:30;;;;;;;3.20;1.20;;;;;;;28.60;36.64;94216.44;5073311;28;20024;-75
2021/05/16 09:43:09;;;;;;;3.50;1.27;;;;;;;28.64;36.27;94209.25;5087355;28;20024;-75
2021/05/16 09:45:56;;;;;;;2.00;1.20;;;;;;;28.63;36.32;94209.81;5062519;28;20470;-75
2021/05/16 09:48:30;;;;;;;3.03;1.20;;;;;;;28.63;36.76;94207.06;5079750;28;20051;-75
2021/05/16 09:51:06;;;;;;;2.88;1.15;;;;;;;28.56;36.33;94207.84;5062324;28;20033;-73
2021/05/16 09:53:31;;;;;;;1.98;1.30;;;;;;;28.56;36.71;94200.31;5051542;28;20037;-72
2021/05/16 09:56:35;;;;;;;2.45;1.20;;;;;;;28.61;36.39;94201.38;5062094;28;20040;-72
2021/05/16 09:59:08;;;;;;;2.42;1.20;;;;;;;28.62;36.45;94197.34;5080396;28;20038;-74
2021/05/16 10:01:34;;;;;;;3.15;1.38;;;;;;;28.65;36.81;94196.94;5085928;28;20038;-73
2021/05/16 10:04:00;;;;;;;2.13;1.23;;;;;;;28.54;36.73;94169.94;5401726;22;20057;-72
2021/05/16 10:06:26;;;;;;;3.13;1.58;;;;;;;28.54;36.53;94163.72;5044611;28;20115;-74
2021/05/16 10:08:52;;;;;;;2.20;0.90;;;;;;;28.45;36.49;94150.63;5030198;28;20122;-71
2021/05/16 10:11:22;;;;;;;1.95;1.05;;;;;;;28.67;35.86;94179.94;5024241;28;20020;-70
2021/05/16 10:14:25;;;;;;;2.72;1.30;;;;;;;28.68;36.59;94178.66;5048925;28;20031;-69
2021/05/16 10:16:50;;;;;;;3.15;1.38;;;;;;;28.54;36.09;94169.22;4969193;28;20061;-70
2021/05/16 10:19:17;;;;;;;2.65;1.20;;;;;;;28.69;36.33;94180.09;5019856;28;20033;-70
2021/05/16 10:21:43;;;;;;;1.88;1.20;;;;;;;28.73;35.75;94170.88;5032083;28;20110;-70
2021/05/16 10:24:10;;;;;;;3.35;1.15;;;;;;;28.64;34.80;94173.53;5032333;28;20052;-71
2021/05/16 10:26:36;;;;;;;2.70;1.35;;;;;;;28.61;34.86;94157.41;5048889;28;20036;-69
2021/05/16 10:29:15;;;;;;;4.15;1.52;;;;;;;28.50;34.37;94141.41;5065685;28;20048;-71
2021/05/16 10:31:47;;;;;;;3.78;1.45;;;;;;;28.66;34.06;94159.22;5031710;28;20051;-71
2021/05/16 10:34:28;;;;;;;1.77;1.02;;;;;;;28.57;35.07;94166.06;5066360;28;20115;-71
2021/05/16 10:37:00;;;;;;;3.20;1.10;;;;;;;28.53;35.30;94163.00;5066220;28;20105;-71
2021/05/16 10:39:39;;;;;;;2.47;1.35;;;;;;;28.50;35.37;94179.88;5032580;28;20473;-71
2021/05/16 10:42:11;;;;;;;4.25;1.55;;;;;;;28.49;35.72;94178.41;5050157;28;20031;-72
2021/05/16 10:44:40;;;;;;;2.42;1.35;;;;;;;28.51;36.16;94214.31;5069710;28;20048;-70
2021/05/16 10:47:06;;;;;;;3.35;1.35;;;;;;;28.53;35.52;94247.44;5070245;28;20056;-70
2021/05/16 10:49:33;;;;;;;2.13;1.13;;;;;;;28.49;36.23;94258.84;5069880;28;20613;-70
2021/05/16 10:52:18;;;;;;;2.33;1.30;;;;;;;28.49;36.11;94266.31;5069921;28;20031;-70
2021/05/16 10:54:47;;;;;;;3.45;1.30;;;;;;;28.53;35.90;94261.91;5054365;28;20032;-70
2021/05/16 10:57:18;;;;;;;3.53;1.10;;;;;;;28.57;35.67;94245.75;5032363;28;20040;-69
2021/05/16 10:59:45;;;;;;;3.60;1.33;;;;;;;28.51;35.94;94236.28;5063648;28;20029;-70
2021/05/16 11:02:10;;;;;;;2.90;1.30;;;;;;;28.51;36.12;94236.28;5052132;28;20081;-72
2021/05/16 11:04:50;;;;;;;2.63;1.33;;;;;;;28.46;35.74;94218.00;5069323;28;20041;-71
2021/05/16 11:07:34;;;;;;;3.45;1.20;;;;;;;28.45;35.91;94233.03;5052875;28;20033;-71
2021/05/16 11:10:26;;;;;;;2.38;0.93;;;;;;;28.55;35.92;94242.09;5051801;28;20399;-71
2021/05/16 11:12:52;;;;;;;2.17;1.05;;;;;;;28.44;36.20;94248.06;5050113;28;20035;-71
2021/05/16 11:15:24;;;;;;;3.60;1.30;;;;;;;28.46;36.45;94256.47;5070077;28;20020;-70
2021/05/16 11:17:50;;;;;;;2.45;1.27;;;;;;;28.40;36.27;94250.47;5069924;28;20029;-70
2021/05/16 11:20:17;;;;;;;2.00;1.27;;;;;;;28.57;36.07;94267.00;5069629;28;20028;-71
2021/05/16 11:22:43;;;;;;;2.30;1.20;;;;;;;28.49;35.94;94277.31;5051849;28;20016;-70
2021/05/16 11:25:09;;;;;;;1.75;1.25;;;;;;;28.58;36.09;94262.97;5069971;28;20035;-71
2021/05/16 11:27:35;;;;;;;2.10;1.30;;;;;;;28.52;36.43;94265.19;5069325;28;20427;-69
2021/05/16 11:30:09;;;;;;;2.90;1.30;;;;;;;28.55;36.83;94258.59;5051357;28;20086;-70
2021/05/16 11:32:35;;;;;;;2.83;1.30;;;;;;;28.60;36.75;94265.91;5069225;28;20025;-70
2021/05/16 11:35:02;;;;;;;2.50;1.10;;;;;;;28.58;37.11;94273.94;5034851;28;20089;-70
2021/05/16 11:37:30;;;;;;;1.95;1.00;;;;;;;28.58;37.47;94266.47;5069630;28;20024;-70